createdAt,value
2017-11-04T00:00:03.564Z,74.11
2017-11-04T00:02:31.062Z,74.05
2017-11-04T00:04:58.544Z,74.03
2017-11-04T00:07:26.011Z,73.97
2017-11-04T00:09:53.482Z,73.91
2017-11-04T00:12:20.952Z,73.84
2017-11-04T00:14:48.424Z,73.88
2017-11-04T00:17:15.924Z,73.61
2017-11-04T00:19:43.392Z,73.59
2017-11-04T00:22:10.873Z,73.53
2017-11-04T00:24:38.402Z,73.46
2017-11-04T00:27:05.932Z,73.30
2017-11-04T00:29:33.408Z,73.24
2017-11-04T00:32:00.918Z,73.09
2017-11-04T00:34:28.402Z,73.07
2017-11-04T00:36:55.912Z,72.85
2017-11-04T00:39:23.571Z,72.87
2017-11-04T00:41:51.029Z,72.84
2017-11-04T00:44:18.504Z,72.55
2017-11-04T00:46:45.999Z,72.43
2017-11-04T00:49:13.456Z,72.31
2017-11-04T00:51:40.963Z,72.35
2017-11-04T00:54:08.426Z,72.31
2017-11-04T00:56:35.951Z,72.26
2017-11-04T00:59:04.271Z,72.27
2017-11-04T01:01:31.745Z,72.26
2017-11-04T01:03:59.196Z,72.19
2017-11-04T01:06:26.707Z,72.24
2017-11-04T01:08:54.203Z,72.13
2017-11-04T01:11:21.713Z,72.20
2017-11-04T01:13:49.179Z,72.44
2017-11-04T01:16:16.649Z,72.39
2017-11-04T01:18:44.117Z,72.12
2017-11-04T01:21:11.597Z,72.25
2017-11-04T01:23:39.059Z,72.38
2017-11-04T01:26:06.681Z,72.24
2017-11-04T01:28:34.185Z,72.07
2017-11-04T01:31:01.674Z,72.03
2017-11-04T01:33:29.947Z,71.73
2017-11-04T01:35:57.432Z,71.76
2017-11-04T01:38:24.924Z,72.06
2017-11-04T01:40:52.447Z,72.10
2017-11-04T01:43:19.904Z,72.17
2017-11-04T01:45:47.469Z,72.19
2017-11-04T01:48:14.371Z,72.06
2017-11-04T01:50:42.805Z,72.12
2017-11-04T01:53:17.293Z,72.20
2017-11-04T01:55:44.762Z,72.12
2017-11-04T01:58:12.275Z,72.20
2017-11-04T02:00:39.738Z,72.19
2017-11-04T02:03:07.220Z,72.21
2017-11-04T02:05:34.675Z,72.01
2017-11-04T02:08:02.201Z,72.30
2017-11-04T02:10:29.673Z,72.32
2017-11-04T02:12:57.168Z,72.29
2017-11-04T02:15:24.631Z,72.41
2017-11-04T02:17:52.155Z,72.65
2017-11-04T02:20:19.650Z,72.54
2017-11-04T02:22:47.159Z,72.27
2017-11-04T02:25:14.657Z,72.32
2017-11-04T02:27:42.203Z,72.38
2017-11-04T02:30:09.681Z,72.38
2017-11-04T02:32:37.190Z,72.52
2017-11-04T02:35:04.645Z,72.65
2017-11-04T02:37:32.107Z,72.62
2017-11-04T02:39:59.555Z,72.64
2017-11-04T02:42:27.390Z,72.79
2017-11-04T02:44:54.838Z,72.93
2017-11-04T02:47:22.299Z,73.16
2017-11-04T02:49:49.802Z,73.02
2017-11-04T02:52:17.314Z,72.99
2017-11-04T02:54:44.809Z,72.96
2017-11-04T02:57:12.327Z,72.92
2017-11-04T02:59:39.788Z,73.00
2017-11-04T03:02:07.284Z,73.11
2017-11-04T03:04:34.756Z,73.18
2017-11-04T03:07:02.536Z,73.14
2017-11-04T03:09:31.301Z,73.09
2017-11-04T03:11:58.755Z,73.15
2017-11-04T03:14:26.251Z,73.03
2017-11-04T03:16:53.775Z,73.07
2017-11-04T03:19:21.700Z,73.07
2017-11-04T03:21:55.655Z,72.97
2017-11-04T03:24:24.630Z,73.13
2017-11-04T03:26:52.363Z,73.10
2017-11-04T03:29:19.878Z,73.01
2017-11-04T03:31:47.412Z,73.12
2017-11-04T03:34:14.878Z,73.34
2017-11-04T03:36:42.597Z,73.17
2017-11-04T03:39:10.088Z,73.06
2017-11-04T03:41:37.572Z,73.15
2017-11-04T03:44:05.071Z,73.15
2017-11-04T03:46:32.577Z,72.95
2017-11-04T03:49:00.056Z,73.15
2017-11-04T03:51:27.672Z,73.04
2017-11-04T03:53:55.134Z,73.08
2017-11-04T03:56:22.620Z,72.93
2017-11-04T03:58:50.964Z,73.07
2017-11-04T04:01:19.248Z,72.99
2017-11-04T04:03:46.707Z,72.90
2017-11-04T04:06:14.608Z,72.97
2017-11-04T04:08:42.225Z,73.22
2017-11-04T04:11:09.894Z,73.12
2017-11-04T04:13:38.064Z,73.11
2017-11-04T04:16:05.515Z,73.09
2017-11-04T04:18:33.058Z,73.12
2017-11-04T04:21:00.511Z,73.17
2017-11-04T04:23:28.473Z,73.18
2017-11-04T04:25:55.979Z,73.29
2017-11-04T04:28:23.503Z,73.38
2017-11-04T04:30:50.975Z,73.44
2017-11-04T04:33:18.457Z,73.41
2017-11-04T04:35:45.936Z,73.58
2017-11-04T04:38:13.407Z,73.51
2017-11-04T04:40:40.929Z,73.46
2017-11-04T04:43:08.432Z,73.54
2017-11-04T04:45:35.908Z,73.52
2017-11-04T04:48:03.385Z,73.37
2017-11-04T04:50:30.861Z,73.48
2017-11-04T04:52:58.399Z,73.55
2017-11-04T04:55:25.872Z,73.58
2017-11-04T04:57:53.337Z,73.72
2017-11-04T05:00:20.855Z,73.72
2017-11-04T05:02:48.355Z,73.79
2017-11-04T05:05:16.240Z,73.75
2017-11-04T05:07:43.714Z,73.82
2017-11-04T05:10:11.175Z,74.02
2017-11-04T05:12:38.724Z,74.16
2017-11-04T05:15:06.198Z,74.31
2017-11-04T05:17:33.674Z,74.20
2017-11-04T05:20:01.154Z,74.26
2017-11-04T05:22:28.923Z,74.26
2017-11-04T05:24:56.389Z,74.38
2017-11-04T05:27:23.865Z,74.26
2017-11-04T05:29:51.331Z,74.33
2017-11-04T05:32:18.783Z,74.47
2017-11-04T05:34:46.301Z,74.54
2017-11-04T05:37:13.772Z,74.54
2017-11-04T05:39:41.300Z,74.72
2017-11-04T05:42:08.779Z,74.69
2017-11-04T05:44:36.240Z,74.52
2017-11-04T05:47:03.713Z,74.57
2017-11-04T05:49:31.193Z,74.68
2017-11-04T05:51:59.596Z,74.69
2017-11-04T05:54:27.064Z,74.78
2017-11-04T05:56:54.569Z,74.74
2017-11-04T05:59:22.079Z,74.93
2017-11-04T06:01:49.531Z,74.80
2017-11-04T06:04:18.309Z,74.76
2017-11-04T06:06:45.777Z,74.69
2017-11-04T06:09:13.249Z,74.71
2017-11-04T06:11:40.706Z,74.79
2017-11-04T06:14:08.774Z,74.68
2017-11-04T06:16:36.238Z,74.76
2017-11-04T06:19:03.702Z,74.77
2017-11-04T06:21:31.171Z,74.60
2017-11-04T06:23:58.651Z,74.60
2017-11-04T06:26:26.137Z,74.70
2017-11-04T06:28:58.644Z,74.89
2017-11-04T06:31:26.238Z,74.58
2017-11-04T06:33:53.736Z,74.75
2017-11-04T06:36:21.298Z,74.61
2017-11-04T06:38:48.796Z,74.48
2017-11-04T06:41:16.321Z,74.78
2017-11-04T06:43:43.909Z,74.75
2017-11-04T06:46:11.435Z,74.93
2017-11-04T06:48:40.731Z,74.78
2017-11-04T06:51:08.347Z,74.35
2017-11-04T06:53:36.746Z,74.35
2017-11-04T06:56:04.269Z,74.29
2017-11-04T06:58:31.795Z,74.46
2017-11-04T07:00:59.329Z,74.26
2017-11-04T07:03:26.871Z,74.43
2017-11-04T07:05:54.407Z,74.22
2017-11-04T07:08:21.884Z,74.22
2017-11-04T07:10:49.428Z,73.98
2017-11-04T07:13:16.985Z,73.93
2017-11-04T07:15:44.444Z,73.85
2017-11-04T07:18:11.902Z,73.64
2017-11-04T07:20:39.472Z,73.44
2017-11-04T07:23:06.963Z,73.48
2017-11-04T07:25:34.452Z,73.52
2017-11-04T07:28:01.936Z,73.40
2017-11-04T07:30:29.412Z,73.36
2017-11-04T07:32:56.934Z,73.56
2017-11-04T07:35:24.808Z,73.41
2017-11-04T07:37:52.294Z,73.48
2017-11-04T07:40:19.762Z,73.66
2017-11-04T07:42:48.221Z,73.50
2017-11-04T07:45:15.724Z,73.55
2017-11-04T07:47:43.244Z,73.53
2017-11-04T07:50:10.739Z,73.37
2017-11-04T07:52:38.235Z,73.40
2017-11-04T07:55:05.713Z,73.41
2017-11-04T07:57:33.190Z,73.20
2017-11-04T08:00:00.706Z,72.89
2017-11-04T08:02:28.211Z,73.08
2017-11-04T08:04:55.711Z,72.73
2017-11-04T08:07:23.206Z,72.43
2017-11-04T08:09:50.714Z,72.46
2017-11-04T08:12:18.188Z,72.33
2017-11-04T08:14:45.674Z,72.02
2017-11-04T08:17:13.147Z,72.21
2017-11-04T08:19:41.368Z,72.17
2017-11-04T08:22:08.848Z,71.87
2017-11-04T08:24:36.314Z,71.46
2017-11-04T08:27:03.798Z,71.69
2017-11-04T08:29:31.290Z,71.01
2017-11-04T08:31:58.768Z,70.95
2017-11-04T08:34:26.267Z,70.79
2017-11-04T08:36:56.258Z,70.59
2017-11-04T08:39:23.793Z,70.45
2017-11-04T08:41:51.249Z,70.30
2017-11-04T08:44:18.725Z,69.83
2017-11-04T08:46:46.215Z,70.00
2017-11-04T08:49:13.793Z,69.76
2017-11-04T08:51:41.289Z,70.03
2017-11-04T08:54:08.778Z,69.60
2017-11-04T08:56:36.253Z,69.73
2017-11-04T08:59:03.762Z,69.51
2017-11-04T09:01:31.292Z,69.34
2017-11-04T09:03:58.777Z,69.08
2017-11-04T09:06:26.256Z,68.72
2017-11-04T09:08:54.353Z,68.18
2017-11-04T09:11:21.875Z,68.25
2017-11-04T09:13:49.346Z,68.23
2017-11-04T09:16:16.878Z,67.61
2017-11-04T09:18:44.403Z,67.70
2017-11-04T09:21:18.341Z,67.60
2017-11-04T09:23:45.796Z,67.34
2017-11-04T09:26:13.293Z,66.80
2017-11-04T09:28:40.755Z,66.83
2017-11-04T09:31:08.231Z,67.37
2017-11-04T09:33:35.710Z,67.25
2017-11-04T09:36:03.192Z,67.16
2017-11-04T09:38:30.668Z,67.20
2017-11-04T09:40:58.223Z,66.58
2017-11-04T09:43:25.772Z,66.18
2017-11-04T09:45:53.236Z,65.59
2017-11-04T09:48:20.729Z,65.97
2017-11-04T09:50:48.215Z,65.81
2017-11-04T09:53:15.724Z,65.67
2017-11-04T09:55:43.195Z,65.40
2017-11-04T09:58:11.530Z,64.96
2017-11-04T10:00:39.056Z,64.68
2017-11-04T10:03:06.624Z,65.06
2017-11-04T10:05:34.109Z,63.95
2017-11-04T10:08:01.600Z,63.60
2017-11-04T10:10:29.067Z,63.51
2017-11-04T10:12:56.564Z,63.45
2017-11-04T10:15:24.439Z,63.54
2017-11-04T10:17:51.992Z,63.05
2017-11-04T10:20:19.468Z,62.25
2017-11-04T10:22:46.966Z,61.02
2017-11-04T10:25:14.504Z,59.95
2017-11-04T10:27:42.009Z,58.69
2017-11-04T10:30:09.562Z,56.89
2017-11-04T10:32:37.276Z,55.31
2017-11-04T10:35:04.788Z,54.53
2017-11-04T10:37:32.416Z,52.05
2017-11-04T10:39:59.960Z,50.17
2017-11-04T10:42:39.105Z,49.38
2017-11-04T10:45:07.316Z,47.76
2017-11-04T10:47:35.754Z,47.06
2017-11-04T10:50:05.046Z,48.73
2017-11-04T10:52:32.551Z,48.71
2017-11-04T10:55:00.130Z,49.79
2017-11-04T10:57:27.673Z,49.61
2017-11-04T10:59:55.180Z,49.57
2017-11-04T11:02:22.720Z,50.32
2017-11-04T11:04:50.208Z,50.67
2017-11-04T11:07:17.716Z,51.15
2017-11-04T11:09:45.238Z,51.68
2017-11-04T11:12:12.782Z,50.66
2017-11-04T11:14:40.262Z,49.40
2017-11-04T11:17:07.818Z,49.05
2017-11-04T11:19:35.385Z,48.63
2017-11-04T11:22:02.958Z,49.67
2017-11-04T11:24:30.515Z,50.13
2017-11-04T11:26:58.058Z,51.39
2017-11-04T11:29:25.591Z,52.58
2017-11-04T11:31:53.153Z,52.95
2017-11-04T11:34:20.716Z,54.61
2017-11-04T11:36:48.215Z,56.12
2017-11-04T11:39:15.727Z,57.20
2017-11-04T11:41:43.219Z,57.63
2017-11-04T11:44:10.782Z,58.43
2017-11-04T11:46:38.305Z,57.26
2017-11-04T11:49:05.842Z,56.71
2017-11-04T11:51:33.352Z,56.33
2017-11-04T11:54:00.921Z,55.55
2017-11-04T11:56:28.443Z,55.69
2017-11-04T11:58:55.981Z,56.75
2017-11-04T12:01:23.557Z,56.85
2017-11-04T12:03:51.060Z,56.14
2017-11-04T12:06:18.586Z,56.25
2017-11-04T12:08:46.077Z,57.45
2017-11-04T12:11:13.606Z,57.89
2017-11-04T12:13:41.084Z,56.63
2017-11-04T12:16:08.573Z,57.17
2017-11-04T12:18:36.143Z,57.66
2017-11-04T12:21:03.661Z,57.44
2017-11-04T12:23:31.147Z,57.49
2017-11-04T12:25:58.659Z,57.20
2017-11-04T12:28:26.186Z,55.77
2017-11-04T12:30:53.747Z,54.64
2017-11-04T12:33:21.234Z,55.14
2017-11-04T12:35:48.756Z,55.85
2017-11-04T12:38:16.254Z,56.26
2017-11-04T12:40:43.759Z,56.37
2017-11-04T12:43:11.227Z,54.91
2017-11-04T12:45:38.732Z,55.78
2017-11-04T12:48:06.213Z,56.35
2017-11-04T12:50:33.732Z,56.84
2017-11-04T12:53:01.277Z,57.66
2017-11-04T12:55:28.777Z,58.49
2017-11-04T12:57:56.350Z,58.70
2017-11-04T13:00:23.882Z,58.91
2017-11-04T13:02:51.352Z,59.79
2017-11-04T13:05:18.890Z,59.99
2017-11-04T13:07:46.407Z,60.44
2017-11-04T13:10:14.004Z,60.34
2017-11-04T13:12:41.471Z,60.12
2017-11-04T13:15:08.982Z,60.62
2017-11-04T13:17:36.459Z,60.84
2017-11-04T13:20:03.978Z,61.11
2017-11-04T13:22:31.549Z,61.26
2017-11-04T13:24:59.055Z,61.51
2017-11-04T13:27:26.605Z,61.55
2017-11-04T13:29:54.185Z,61.82
2017-11-04T13:32:21.706Z,61.88
2017-11-04T13:34:49.195Z,61.74
2017-11-04T13:37:16.750Z,61.88
2017-11-04T13:39:44.297Z,62.40
2017-11-04T13:42:11.820Z,62.77
2017-11-04T13:44:39.343Z,62.70
2017-11-04T13:47:06.969Z,62.52
2017-11-04T13:49:34.655Z,62.47
2017-11-04T13:52:02.226Z,62.81
2017-11-04T13:54:29.779Z,62.29
2017-11-04T13:56:57.303Z,62.50
2017-11-04T13:59:24.791Z,62.13
2017-11-04T14:01:52.266Z,62.20
2017-11-04T14:04:19.849Z,62.26
2017-11-04T14:06:47.365Z,62.09
2017-11-04T14:09:14.990Z,62.49
2017-11-04T14:11:42.567Z,62.33
2017-11-04T14:14:10.129Z,62.37
2017-11-04T14:16:37.723Z,62.25
2017-11-04T14:19:05.226Z,62.36
2017-11-04T14:21:32.783Z,62.31
2017-11-04T14:24:00.250Z,62.27
2017-11-04T14:26:27.794Z,62.40
2017-11-04T14:28:55.301Z,62.49
2017-11-04T14:31:23.160Z,62.46
2017-11-04T14:33:51.189Z,62.85
2017-11-04T14:36:18.727Z,63.04
2017-11-04T14:38:46.271Z,62.94
2017-11-04T14:41:13.804Z,63.05
2017-11-04T14:43:41.329Z,63.11
2017-11-04T14:46:08.841Z,63.43
2017-11-04T14:48:36.563Z,63.62
2017-11-04T14:51:04.138Z,63.91
2017-11-04T14:53:31.667Z,64.07
2017-11-04T14:55:59.170Z,64.26
2017-11-04T14:58:26.683Z,64.51
2017-11-04T15:00:54.207Z,64.79
2017-11-04T15:03:21.780Z,64.75
2017-11-04T15:05:49.325Z,64.81
2017-11-04T15:08:16.839Z,65.06
2017-11-04T15:10:44.395Z,65.22
2017-11-04T15:13:13.459Z,65.33
2017-11-04T15:15:41.021Z,65.41
2017-11-04T15:18:08.538Z,65.65
2017-11-04T15:20:36.026Z,65.78
2017-11-04T15:23:03.532Z,66.08
2017-11-04T15:25:31.162Z,66.35
2017-11-04T15:27:58.674Z,66.38
2017-11-04T15:30:35.810Z,66.58
2017-11-04T15:33:03.436Z,66.69
2017-11-04T15:35:31.306Z,67.04
2017-11-04T15:37:58.926Z,67.12
2017-11-04T15:40:26.900Z,67.52
2017-11-04T15:42:54.471Z,67.10
2017-11-04T15:45:21.954Z,67.52
2017-11-04T15:47:49.517Z,67.66
2017-11-04T15:50:17.110Z,68.12
2017-11-04T15:52:44.971Z,68.28
2017-11-04T15:55:12.470Z,69.08
2017-11-04T15:57:40.008Z,69.47
2017-11-04T16:00:07.598Z,69.66
2017-11-04T16:02:35.096Z,68.90
2017-11-04T17:24:32.271Z,72.64
2017-11-04T17:26:59.898Z,72.22
2017-11-04T17:29:27.761Z,72.07
2017-11-04T17:31:55.481Z,73.04
2017-11-04T17:34:23.056Z,72.32
2017-11-04T17:36:50.528Z,72.62
2017-11-04T17:39:18.271Z,73.09
2017-11-04T17:41:45.830Z,73.11
2017-11-04T17:44:17.000Z,72.65
2017-11-04T17:46:44.715Z,73.21
2017-11-04T17:49:12.298Z,73.23
2017-11-04T17:51:41.081Z,72.50
2017-11-04T17:54:08.676Z,73.35
2017-11-04T17:56:36.425Z,72.79
2017-11-04T17:59:15.558Z,73.79
2017-11-04T18:01:46.130Z,72.60
2017-11-04T18:04:14.317Z,72.90
2017-11-04T18:06:41.988Z,72.85
2017-11-04T18:09:09.663Z,73.67
2017-11-04T18:11:37.143Z,73.34
2017-11-04T18:14:04.622Z,72.89
2017-11-04T18:16:32.097Z,73.90
2017-11-04T18:18:59.690Z,73.69
2017-11-04T18:21:27.186Z,73.38
2017-11-04T18:23:54.672Z,73.43
2017-11-04T18:26:22.182Z,73.55
2017-11-04T18:28:49.763Z,74.10
2017-11-04T18:31:17.246Z,73.84
2017-11-04T18:33:44.755Z,73.73
2017-11-04T18:36:12.226Z,73.83
2017-11-04T18:38:40.713Z,73.79
2017-11-04T18:41:08.252Z,73.69
2017-11-04T18:43:35.737Z,73.75
2017-11-04T18:46:03.219Z,73.56
2017-11-04T18:48:30.682Z,74.01
2017-11-04T18:50:58.298Z,73.49
2017-11-04T18:53:25.783Z,73.43
2017-11-04T18:55:53.388Z,73.51
2017-11-04T18:58:20.916Z,73.83
2017-11-04T19:00:48.427Z,73.87
2017-11-04T19:03:15.976Z,73.95
2017-11-04T19:05:44.379Z,73.94
2017-11-04T19:08:12.246Z,73.99
2017-11-04T19:10:40.639Z,74.00
2017-11-04T19:13:08.169Z,74.69
2017-11-04T19:15:36.739Z,74.13
2017-11-04T19:18:04.336Z,74.69
2017-11-04T19:20:36.846Z,74.25
2017-11-04T19:23:05.218Z,74.11
2017-11-04T19:25:35.526Z,74.15
2017-11-04T19:28:03.124Z,74.39
2017-11-04T19:30:30.976Z,75.14
2017-11-04T19:32:58.510Z,74.65
2017-11-04T19:35:32.645Z,75.00
2017-11-04T19:38:00.240Z,74.47
2017-11-04T19:40:27.699Z,74.56
2017-11-04T19:42:55.267Z,74.51
2017-11-04T19:45:25.940Z,74.72
2017-11-04T19:47:53.613Z,74.99
2017-11-04T19:50:21.235Z,75.72
2017-11-04T19:52:49.312Z,74.87
2017-11-04T19:55:16.870Z,74.98
2017-11-04T19:57:46.063Z,74.99
2017-11-04T20:00:13.689Z,75.01
2017-11-04T20:02:41.187Z,74.96
2017-11-04T20:05:08.743Z,75.03
2017-11-04T20:07:36.276Z,75.03
2017-11-04T20:10:03.782Z,75.03
2017-11-04T20:12:31.332Z,75.00
2017-11-04T20:14:58.872Z,74.87
2017-11-04T20:17:26.384Z,74.92
2017-11-04T20:19:53.933Z,74.94
2017-11-04T20:22:21.433Z,75.30
2017-11-04T20:24:54.590Z,74.97
2017-11-04T20:27:22.185Z,75.07
2017-11-04T20:29:50.040Z,74.83
2017-11-04T20:32:17.510Z,74.79
2017-11-04T20:34:44.992Z,74.88
2017-11-04T20:37:12.611Z,75.08
2017-11-04T20:39:40.110Z,75.44
2017-11-04T20:42:07.836Z,75.12
2017-11-04T20:44:35.383Z,75.05
2017-11-04T20:47:02.891Z,75.28
2017-11-04T20:49:32.411Z,75.26
2017-11-04T20:52:04.592Z,76.06
2017-11-04T20:54:37.976Z,75.58
2017-11-04T20:57:06.593Z,75.48
2017-11-04T20:59:34.448Z,75.54
2017-11-04T21:02:02.154Z,75.88
2017-11-04T21:04:29.798Z,75.74
2017-11-04T21:06:57.386Z,75.50
2017-11-04T21:09:24.977Z,75.87
2017-11-04T21:11:52.698Z,75.64
2017-11-04T21:14:21.380Z,75.57
2017-11-04T21:16:48.919Z,75.77
2017-11-04T21:19:16.468Z,76.00
2017-11-04T21:21:45.766Z,75.94
2017-11-04T21:24:14.013Z,75.97
2017-11-04T21:26:41.525Z,76.18
2017-11-04T21:29:09.920Z,76.60
2017-11-04T21:31:37.483Z,76.41
2017-11-04T21:34:05.159Z,76.40
2017-11-04T21:36:32.818Z,76.52
2017-11-04T21:39:00.397Z,76.52
2017-11-04T21:41:27.980Z,76.56
2017-11-04T21:43:55.536Z,76.57
2017-11-04T21:46:23.788Z,76.66
2017-11-04T21:48:51.489Z,76.68
2017-11-04T21:51:19.039Z,76.65
2017-11-04T21:53:46.883Z,76.77
2017-11-04T21:56:14.512Z,76.76
2017-11-04T21:58:42.570Z,76.92
2017-11-04T22:01:10.143Z,77.24
2017-11-04T22:03:37.670Z,77.13
2017-11-04T22:06:05.214Z,76.86
2017-11-04T22:08:32.769Z,77.03
2017-11-04T22:11:00.484Z,77.10
2017-11-04T22:13:28.025Z,77.19
2017-11-04T22:15:55.646Z,77.18
2017-11-04T22:18:23.220Z,77.06
2017-11-04T22:20:50.731Z,77.08
2017-11-04T22:23:18.224Z,77.33
2017-11-04T22:25:45.739Z,77.19
2017-11-04T22:28:14.830Z,77.90
2017-11-04T22:30:44.249Z,77.12
2017-11-04T22:33:11.972Z,77.15
2017-11-04T22:35:39.705Z,77.31
2017-11-04T22:38:09.514Z,77.29
2017-11-04T22:40:37.039Z,77.06
2017-11-04T22:43:04.757Z,77.05
2017-11-04T22:45:32.515Z,77.14
2017-11-04T22:47:59.999Z,77.22
2017-11-04T22:50:27.568Z,77.46
2017-11-04T22:52:55.111Z,77.51
2017-11-04T22:55:25.851Z,77.46
2017-11-04T22:57:54.299Z,77.41
2017-11-04T23:00:22.480Z,77.48
2017-11-04T23:02:50.553Z,77.47
2017-11-04T23:05:18.082Z,77.48
2017-11-04T23:07:45.647Z,77.64
2017-11-04T23:10:13.222Z,77.80
2017-11-04T23:12:40.773Z,77.80
2017-11-04T23:15:08.616Z,78.00
2017-11-04T23:17:36.202Z,77.95
2017-11-04T23:20:04.819Z,78.36
2017-11-04T23:22:32.365Z,78.15
2017-11-04T23:24:59.892Z,78.15
2017-11-04T23:27:27.474Z,78.15
2017-11-04T23:29:54.980Z,78.51
2017-11-04T23:32:22.520Z,78.22
2017-11-04T23:34:50.366Z,78.51
2017-11-04T23:37:17.913Z,78.33
2017-11-04T23:39:45.468Z,78.61
2017-11-04T23:42:12.942Z,78.30
2017-11-04T23:44:40.471Z,78.96
2017-11-04T23:47:07.948Z,79.03
2017-11-04T23:49:35.450Z,78.49
2017-11-04T23:52:02.985Z,79.05
2017-11-04T23:54:30.474Z,78.94
2017-11-04T23:56:57.978Z,78.94
2017-11-04T23:59:25.686Z,79.09
